.
WxDataArchive / Data Records for 2012-05-08
2012-05-07 May 2012 2012-05-09

Data Records for Tuesday, 08 May 2012

Time	Temp	Chill	HIndex	Humid	Dewpt	 Wind 	HiWind	WindDir	Rain 	Barom 
-----	----	-----	------	-----	-----	------	------	-------	-----	----- 
00:00	60.1	60.1	60.1	88	56.5	2	5	292	0.00	29.813 
00:05	59.8	59.8	59.8	88	56.2	2	6	292	0.00	29.813 
00:10	59.3	59.3	59.3	88	55.7	1	4	270	0.00	29.813 
00:15	59.2	59.2	59.2	89	56.0	1	3	270	0.00	29.813 
00:20	59.0	59.0	59.0	89	55.8	1	3	270	0.00	29.813 
00:25	58.9	58.9	58.9	90	56.0	1	2	338	0.00	29.813 
00:30	58.7	58.7	58.7	90	55.8	0	3	338	0.00	29.813 
00:35	58.6	58.6	58.6	91	56.0	1	3	338	0.00	29.813 
00:40	58.3	58.3	58.3	91	55.7	1	4	315	0.00	29.813 
00:45	58.1	58.1	58.1	91	55.5	1	4	292	0.00	29.817 
00:50	57.8	57.8	57.8	91	55.2	1	4	292	0.00	29.817 
00:55	57.6	57.6	57.6	90	54.7	1	3	292	0.00	29.817 
01:00	57.6	57.6	57.6	90	54.7	0	2	292	0.00	29.825 
01:05	57.6	57.6	57.6	90	54.7	0	3	292	0.00	29.825 
01:10	57.5	57.5	57.5	90	54.6	1	3	315	0.00	29.825 
01:15	57.2	57.2	57.2	89	54.0	1	4	315	0.00	29.827 
01:20	56.7	56.7	56.7	89	53.5	1	4	315	0.00	29.827 
01:25	56.6	56.6	56.6	88	53.1	1	3	315	0.01	29.827 
01:30	56.5	56.5	56.5	88	53.0	1	3	315	0.00	29.822 
01:35	56.5	56.5	56.5	89	53.3	0	2	315	0.00	29.822 
01:40	56.5	56.5	56.5	88	53.0	1	3	315	0.00	29.822 
01:45	56.3	56.3	56.3	88	52.8	0	2	315	0.00	29.818 
01:50	56.2	56.2	56.2	88	52.7	1	2	315	0.00	29.818 
01:55	56.0	56.0	56.0	88	52.5	1	4	315	0.00	29.818 
02:00	55.9	55.9	55.9	88	52.4	0	2	315	0.00	29.812 
02:05	55.9	55.9	55.9	88	52.4	0	2	315	0.00	29.812 
02:10	55.7	55.7	55.7	88	52.2	0	1	315	0.00	29.812 
02:15	55.7	55.7	55.7	88	52.2	0	2	315	0.00	29.797 
02:20	55.6	55.6	55.6	88	52.1	0	2	315	0.00	29.797 
02:25	55.6	55.6	55.6	88	52.1	0	1	315	0.00	29.797 
02:30	55.6	55.6	55.6	88	52.1	0	1	315	0.00	29.796 
02:35	55.7	55.7	55.7	88	52.2	0	1	315	0.00	29.796 
02:40	55.7	55.7	55.7	88	52.2	0	3	315	0.00	29.796 
02:45	55.6	55.6	55.6	88	52.1	1	3	315	0.00	29.795 
02:50	55.4	55.4	55.4	88	51.9	0	3	315	0.00	29.795 
02:55	55.4	55.4	55.4	88	51.9	0	1	315	0.00	29.795 
03:00	55.3	55.3	55.3	88	51.8	1	2	315	0.00	29.787 
03:05	55.1	55.1	55.1	88	51.6	0	2	315	0.00	29.787 
03:10	55.0	55.0	55.0	87	51.2	1	3	315	0.00	29.787 
03:15	54.8	54.8	54.8	87	51.0	0	2	315	0.00	29.778 
03:20	54.8	54.8	54.8	87	51.0	0	2	315	0.00	29.778 
03:25	54.8	54.8	54.8	86	50.7	0	0	---	0.00	29.778 
03:30	54.7	54.7	54.7	86	50.6	0	2	315	0.00	29.778 
03:35	54.5	54.5	54.5	86	50.4	0	1	315	0.00	29.778 
03:40	54.2	54.2	54.2	85	49.8	0	0	---	0.00	29.778 
03:45	54.1	54.1	54.1	84	49.4	0	2	315	0.00	29.779 
03:50	53.9	53.9	53.9	83	48.9	0	2	315	0.00	29.779 
03:55	53.9	53.9	53.9	83	48.9	1	3	315	0.00	29.779 
04:00	54.1	54.1	54.1	83	49.1	0	1	315	0.00	29.782 
04:05	53.9	53.9	53.9	83	48.9	1	2	315	0.00	29.782 
04:10	53.8	53.8	53.8	82	48.4	0	2	315	0.00	29.782 
04:15	53.8	53.8	53.8	82	48.4	0	1	315	0.00	29.781 
04:20	53.6	53.6	53.6	81	47.9	0	1	315	0.00	29.781 
04:25	53.6	53.6	53.6	81	47.9	0	1	315	0.00	29.781 
04:30	53.5	53.5	53.5	81	47.8	0	1	315	0.00	29.781 
04:35	53.3	53.3	53.3	81	47.6	0	1	315	0.00	29.781 
04:40	53.3	53.3	53.3	81	47.6	0	2	315	0.00	29.781 
04:45	53.2	53.2	53.2	81	47.5	0	1	315	0.00	29.779 
04:50	53.1	53.1	53.1	81	47.4	0	1	315	0.00	29.779 
04:55	53.1	53.1	53.1	81	47.4	0	2	315	0.00	29.779 
05:00	52.9	52.9	52.9	81	47.2	0	2	315	0.00	29.780 
05:05	52.8	52.8	52.8	81	47.1	0	1	315	0.00	29.780 
05:10	52.8	52.8	52.8	81	47.1	0	0	---	0.00	29.780 
05:15	52.6	52.6	52.6	81	46.9	0	0	---	0.00	29.786 
05:20	52.5	52.5	52.5	81	46.8	0	0	---	0.00	29.786 
05:25	52.3	52.3	52.3	81	46.6	0	0	---	0.00	29.786 
05:30	52.2	52.2	52.2	82	46.9	0	0	---	0.00	29.797 
05:35	52.0	52.0	52.0	82	46.7	0	1	315	0.00	29.797 
05:40	52.0	52.0	52.0	82	46.7	0	2	315	0.00	29.797 
05:45	51.9	51.9	51.9	82	46.6	0	2	315	0.00	29.803 
05:50	51.9	51.9	51.9	82	46.6	1	2	315	0.00	29.803 
05:55	51.7	51.7	51.7	82	46.4	1	3	315	0.00	29.803 
06:00	51.7	51.7	51.7	82	46.4	0	2	315	0.00	29.812 
06:05	51.6	51.6	51.6	83	46.6	1	3	315	0.00	29.812 
06:10	51.6	51.6	51.6	83	46.6	1	3	270	0.00	29.812 
06:15	51.6	51.6	51.6	84	46.9	1	3	270	0.00	29.812 
06:20	51.4	51.4	51.4	84	46.7	0	3	270	0.00	29.812 
06:25	51.4	51.4	51.4	85	47.0	1	2	270	0.00	29.812 
06:30	51.4	51.4	51.4	86	47.4	1	3	270	0.00	29.815 
06:35	51.3	51.3	51.3	86	47.3	1	4	270	0.00	29.815 
06:40	51.3	51.3	51.3	87	47.6	0	2	270	0.00	29.815 
06:45	51.1	51.1	51.1	87	47.4	1	3	270	0.00	29.819 
06:50	51.1	51.1	51.1	88	47.7	1	2	270	0.00	29.819 
06:55	51.1	51.1	51.1	88	47.7	1	3	270	0.00	29.819 
07:00	51.1	51.1	51.1	89	48.0	1	2	270	0.00	29.813 
07:05	51.3	51.3	51.3	89	48.2	1	3	270	0.00	29.813 
07:10	51.3	51.3	51.3	90	48.5	1	4	270	0.00	29.813 
07:15	51.3	51.3	51.3	90	48.5	1	4	270	0.00	29.815 
07:20	51.4	51.4	51.4	90	48.6	1	2	270	0.00	29.815 
07:25	51.4	51.4	51.4	90	48.6	0	2	270	0.00	29.815 
07:30	51.4	51.4	51.4	90	48.6	1	3	270	0.00	29.815 
07:35	51.6	51.6	51.6	90	48.8	1	3	270	0.00	29.815 
07:40	51.7	51.7	51.7	90	48.9	1	4	270	0.00	29.815 
07:45	51.7	51.7	51.7	90	48.9	1	3	270	0.00	29.815 
07:50	51.9	51.9	51.9	90	49.1	1	3	270	0.00	29.815 
07:55	51.9	51.9	51.9	89	48.8	1	4	292	0.00	29.815 
08:00	51.7	51.7	51.7	89	48.6	2	4	270	0.00	29.824 
08:05	51.7	51.7	51.7	89	48.6	1	5	292	0.00	29.824 
08:10	51.9	51.9	51.9	90	49.1	1	3	292	0.00	29.824 
08:15	51.9	51.9	51.9	90	49.1	1	4	292	0.00	29.833 
08:20	52.0	52.0	52.0	90	49.2	0	2	292	0.00	29.833 
08:25	52.0	52.0	52.0	90	49.2	1	3	315	0.00	29.833 
08:30	52.2	52.2	52.2	90	49.4	1	3	315	0.00	29.848 
08:35	52.2	52.2	52.2	90	49.4	1	3	315	0.00	29.848 
08:40	52.3	52.3	52.3	90	49.5	1	4	315	0.00	29.848 
08:45	52.5	52.5	52.5	90	49.7	1	4	292	0.00	29.850 
08:50	52.8	52.8	52.8	90	49.9	0	2	292	0.00	29.850 
08:55	53.1	53.1	53.1	90	50.2	0	3	292	0.00	29.850 
09:00	53.3	53.3	53.3	90	50.4	0	3	292	0.00	29.858 
09:05	53.5	53.5	53.5	90	50.6	0	2	292	0.00	29.858 
09:10	53.8	53.8	53.8	89	50.6	0	2	292	0.00	29.858 
09:15	53.9	53.9	53.9	89	50.7	1	5	292	0.00	29.860 
09:20	54.2	54.2	54.2	88	50.7	1	3	338	0.00	29.860 
09:25	54.8	54.8	54.8	88	51.3	0	2	338	0.00	29.860 
09:30	55.4	55.4	55.4	87	51.6	0	3	338	0.00	29.856 
09:35	56.0	56.0	56.0	86	51.9	0	2	338	0.00	29.856 
09:40	56.5	56.5	56.5	85	52.0	0	2	338	0.00	29.856 
09:45	56.6	56.6	56.6	84	51.8	0	2	338	0.00	29.849 
09:50	56.5	56.5	56.5	83	51.4	1	3	338	0.00	29.849 
09:55	56.7	56.7	56.7	83	51.6	1	3	338	0.00	29.849 
10:00	57.2	57.2	57.2	82	51.8	1	3	338	0.00	29.840 
10:05	57.8	57.8	57.8	81	52.0	1	4	315	0.00	29.840 
10:10	58.3	58.3	58.3	81	52.5	0	2	315	0.00	29.840 
10:15	58.9	58.9	58.9	80	52.7	0	2	315	0.00	29.832 
10:20	59.2	59.2	59.2	78	52.3	1	3	315	0.00	29.832 
10:25	59.3	59.3	59.3	77	52.1	1	3	292	0.00	29.832 
10:30	59.5	59.5	59.5	76	51.9	1	4	292	0.00	29.833 
10:35	60.4	60.4	60.4	75	52.4	0	2	292	0.00	29.833 
10:40	61.5	61.5	61.5	74	53.1	0	2	292	0.00	29.833 
10:45	61.6	61.6	61.6	72	52.5	1	3	292	0.00	29.834 
10:50	62.0	62.0	62.0	73	53.2	1	2	292	0.00	29.834 
10:55	62.4	62.4	62.4	73	53.6	0	1	292	0.00	29.834 
11:00	62.9	62.9	62.9	74	54.5	0	1	292	0.00	29.834 
11:05	63.9	63.9	63.9	73	55.1	0	2	292	0.00	29.834 
11:10	64.0	64.0	64.0	70	54.0	1	3	292	0.00	29.834 
11:15	64.2	64.2	64.2	70	54.2	1	3	338	0.00	29.830 
11:20	64.0	64.0	64.0	67	52.8	0	3	338	0.00	29.830 
11:25	64.2	64.2	64.2	68	53.4	1	2	338	0.00	29.830 
11:30	64.7	64.7	64.7	68	53.9	1	3	315	0.00	29.829 
11:35	65.3	65.3	65.3	66	53.6	0	2	315	0.00	29.829 
11:40	65.6	65.6	65.6	67	54.3	1	4	315	0.00	29.829 
11:45	66.1	66.1	66.1	64	53.6	1	2	270	0.00	29.826 
11:50	66.6	66.6	66.6	65	54.5	0	2	270	0.00	29.826 
11:55	67.3	67.3	67.3	63	54.3	0	3	270	0.00	29.826 
12:00	67.8	67.8	67.8	62	54.3	0	3	270	0.00	29.823 
12:05	67.9	67.9	67.9	62	54.4	1	3	270	0.00	29.823 
12:10	67.8	67.8	67.8	64	55.2	0	2	270	0.00	29.823 
12:15	68.3	68.3	68.3	59	53.4	0	2	270	0.00	29.825 
12:20	68.6	68.6	68.6	61	54.6	1	2	292	0.00	29.825 
12:25	69.1	69.1	69.1	61	55.1	0	0	---	0.00	29.825 
12:30	69.6	69.6	69.6	58	54.2	1	3	292	0.00	29.824 
12:35	69.6	69.6	69.6	57	53.7	0	3	338	0.00	29.824 
12:40	69.6	69.6	69.6	58	54.2	1	2	315	0.00	29.824 
12:45	70.1	70.1	70.1	57	54.1	0	3	315	0.00	29.819 
12:50	70.6	70.6	70.6	56	54.1	0	1	315	0.00	29.819 
12:55	70.4	70.4	70.4	56	53.9	0	2	315	0.00	29.819 
13:00	70.4	70.4	70.4	56	53.9	1	3	315	0.00	29.815 
13:05	70.4	70.4	70.4	53	52.4	2	6	315	0.00	29.815 
13:10	70.1	70.1	70.1	56	53.7	1	3	292	0.00	29.815 
13:15	69.9	69.9	69.9	54	52.5	1	4	292	0.00	29.822 
13:20	70.4	70.4	70.4	57	54.4	1	5	315	0.00	29.822 
13:25	70.4	70.4	70.4	54	52.9	1	4	292	0.00	29.822 
13:30	70.9	70.9	70.9	55	53.9	1	3	292	0.00	29.813 
13:35	71.1	71.1	71.1	52	52.6	2	4	292	0.00	29.813 
13:40	71.5	71.5	71.5	50	51.9	3	6	292	0.00	29.813 
13:45	71.1	71.1	71.1	53	53.1	1	5	270	0.00	29.814 
13:50	71.1	71.1	71.1	52	52.6	1	3	270	0.00	29.814 
13:55	70.4	70.4	70.4	53	52.4	3	6	292	0.00	29.814 
14:00	70.1	70.1	70.1	56	53.7	2	5	270	0.00	29.817 
14:05	70.6	70.6	70.6	55	53.6	1	3	315	0.00	29.817 
14:10	70.3	70.3	70.3	54	52.9	2	6	270	0.00	29.817 
14:15	69.6	69.6	69.6	61	55.5	4	9	270	0.00	29.816 
14:20	69.4	69.4	69.4	62	55.8	3	6	248	0.00	29.816 
14:25	69.1	69.1	69.1	62	55.5	3	7	270	0.00	29.816 
14:30	68.9	68.9	68.9	62	55.3	2	5	270	0.00	29.818 
14:35	68.8	68.8	68.8	63	55.7	3	5	270	0.00	29.818 
14:40	69.1	69.1	69.1	62	55.5	3	6	270	0.00	29.818 
14:45	69.4	69.4	69.4	62	55.8	3	7	270	0.00	29.813 
14:50	69.6	69.6	69.6	61	55.5	4	9	270	0.00	29.813 
14:55	70.1	70.1	70.1	60	55.6	3	7	270	0.00	29.813 
15:00	69.8	69.8	69.8	59	54.8	3	7	270	0.00	29.821 
15:05	69.6	69.6	69.6	61	55.5	3	7	270	0.00	29.821 
15:10	69.3	69.3	69.3	58	53.9	4	9	270	0.00	29.821 
15:15	69.3	69.3	69.3	59	54.3	3	8	270	0.00	29.828 
15:20	68.9	68.9	68.9	61	54.9	2	5	292	0.00	29.828 
15:25	68.4	68.4	68.4	61	54.4	3	6	270	0.00	29.828 
15:30	68.4	68.4	68.4	61	54.4	4	7	270	0.00	29.828 
15:35	67.8	67.8	67.8	61	53.9	3	5	338	0.00	29.828 
15:40	68.6	68.6	68.6	59	53.7	3	7	270	0.00	29.828 
15:45	69.1	69.1	69.1	58	53.7	3	6	292	0.00	29.826 
15:50	69.1	69.1	69.1	55	52.2	3	7	270	0.00	29.826 
15:55	68.8	68.8	68.8	56	52.5	3	9	270	0.00	29.826 
16:00	69.1	69.1	69.1	56	52.7	2	5	270	0.00	29.824 
16:05	68.9	68.9	68.9	54	51.6	2	4	292	0.00	29.824 
16:10	68.8	68.8	68.8	55	52.0	2	5	270	0.00	29.824 
16:15	69.1	69.1	69.1	52	50.7	3	7	270	0.00	29.825 
16:20	68.9	68.9	68.9	54	51.6	3	7	270	0.00	29.825 
16:25	68.8	68.8	68.8	54	51.5	2	5	338	0.00	29.825 
16:30	69.1	69.1	69.1	53	51.2	2	4	292	0.00	29.824 
16:35	69.4	69.4	69.4	50	49.9	1	4	315	0.00	29.824 
16:40	68.9	68.9	68.9	49	48.9	2	5	315	0.00	29.824 
16:45	69.1	69.1	69.1	48	48.6	2	5	315	0.00	29.826 
16:50	69.3	69.3	69.3	50	49.8	2	5	292	0.00	29.826 
16:55	69.3	69.3	69.3	47	48.2	4	9	270	0.00	29.826 
17:00	69.1	69.1	69.1	50	49.7	2	5	270	0.00	29.827 
17:05	69.3	69.3	69.3	45	47.0	3	7	270	0.00	29.827 
17:10	69.3	69.3	69.3	46	47.6	2	5	270	0.00	29.827 
17:15	69.3	69.3	69.3	46	47.6	3	6	270	0.00	29.826 
17:20	68.9	68.9	68.9	47	47.8	2	6	270	0.00	29.826 
17:25	68.9	68.9	68.9	46	47.3	3	6	270	0.00	29.826 
17:30	68.9	68.9	68.9	43	45.5	3	7	292	0.00	29.829 
17:35	69.3	69.3	69.3	42	45.2	3	6	292	0.00	29.829 
17:40	69.1	69.1	69.1	43	45.7	2	6	292	0.00	29.829 
17:45	69.4	69.4	69.4	41	44.7	2	5	270	0.00	29.830 
17:50	69.6	69.6	69.6	39	43.5	3	6	270	0.00	29.830 
17:55	69.3	69.3	69.3	40	43.9	2	6	315	0.00	29.830 
18:00	69.3	69.3	69.3	39	43.3	2	4	292	0.00	29.832 
18:05	68.9	68.9	68.9	39	42.9	2	5	270	0.00	29.832 
18:10	68.9	68.9	68.9	41	44.2	1	5	315	0.00	29.832 
18:15	69.1	69.1	69.1	42	45.0	1	2	315	0.00	29.831 
18:20	69.3	69.3	69.3	39	43.3	2	5	292	0.00	29.831 
18:25	68.9	68.9	68.9	38	42.2	1	4	292	0.00	29.831 
18:30	68.8	68.8	68.8	39	42.8	2	5	292	0.00	29.830 
18:35	68.9	68.9	68.9	41	44.2	1	2	270	0.00	29.830 
18:40	68.9	68.9	68.9	40	43.6	2	4	270	0.00	29.830 
18:45	68.8	68.8	68.8	40	43.5	1	4	315	0.00	29.827 
18:50	68.8	68.8	68.8	40	43.5	2	5	292	0.00	29.827 
18:55	68.6	68.6	68.6	40	43.3	1	5	315	0.00	29.827 
19:00	68.6	68.6	68.6	40	43.3	2	4	315	0.00	29.824 
19:05	68.4	68.4	68.4	41	43.8	2	4	270	0.00	29.824 
19:10	68.1	68.1	68.1	41	43.5	1	2	270	0.00	29.824 
19:15	67.8	67.8	67.8	42	43.9	1	2	270	0.00	29.824 
19:20	67.6	67.6	67.6	42	43.7	0	3	270	0.00	29.824 
19:25	67.6	67.6	67.6	43	44.3	0	2	270	0.00	29.824 
19:30	67.4	67.4	67.4	43	44.1	0	3	270	0.00	29.822 
19:35	67.3	67.3	67.3	45	45.2	0	1	270	0.00	29.822 
19:40	67.3	67.3	67.3	44	44.6	0	1	270	0.00	29.822 
19:45	67.3	67.3	67.3	44	44.6	0	1	270	0.00	29.826 
19:50	67.3	67.3	67.3	44	44.6	0	1	270	0.00	29.826 
19:55	67.1	67.1	67.1	44	44.5	0	2	270	0.00	29.826 
20:00	66.9	66.9	66.9	45	44.9	0	2	270	0.00	29.825 
20:05	66.6	66.6	66.6	46	45.2	0	1	270	0.00	29.825 
20:10	66.3	66.3	66.3	46	44.9	0	1	270	0.00	29.825 
20:15	66.3	66.3	66.3	46	44.9	0	1	270	0.00	29.832 
20:20	66.1	66.1	66.1	47	45.3	0	1	270	0.00	29.832 
20:25	66.1	66.1	66.1	48	45.8	0	1	270	0.00	29.832 
20:30	65.8	65.8	65.8	48	45.6	1	3	270	0.00	29.834 
20:35	65.8	65.8	65.8	47	45.0	1	4	270	0.00	29.834 
20:40	65.6	65.6	65.6	47	44.8	1	2	270	0.00	29.834 
20:45	65.5	65.5	65.5	47	44.7	1	4	270	0.00	29.838 
20:50	65.2	65.2	65.2	46	43.9	1	4	270	0.00	29.838 
20:55	65.0	65.0	65.0	48	44.8	0	1	270	0.00	29.838 
21:00	64.5	64.5	64.5	49	44.9	0	1	270	0.00	29.835 
21:05	64.2	64.2	64.2	49	44.6	0	1	270	0.00	29.835 
21:10	63.9	63.9	63.9	50	44.9	0	0	---	0.00	29.835 
21:15	63.5	63.5	63.5	50	44.5	0	0	---	0.00	29.835 
21:20	63.2	63.2	63.2	50	44.2	0	0	---	0.00	29.835 
21:25	63.1	63.1	63.1	51	44.7	0	0	---	0.00	29.835 
21:30	62.7	62.7	62.7	52	44.8	0	0	---	0.00	29.837 
21:35	62.4	62.4	62.4	53	45.0	0	0	---	0.00	29.837 
21:40	62.1	62.1	62.1	53	44.8	0	0	---	0.00	29.837 
21:45	61.6	61.6	61.6	55	45.3	0	0	---	0.00	29.846 
21:50	61.3	61.3	61.3	55	45.0	0	0	---	0.00	29.846 
21:55	60.9	60.9	60.9	56	45.1	0	0	---	0.00	29.846 
22:00	60.2	60.2	60.2	58	45.4	0	0	---	0.00	29.849 
22:05	59.8	59.8	59.8	59	45.4	0	0	---	0.00	29.849 
22:10	59.3	59.3	59.3	61	45.8	0	0	---	0.00	29.849 
22:15	58.9	58.9	58.9	62	45.9	0	0	---	0.00	29.846 
22:20	58.6	58.6	58.6	62	45.6	0	0	---	0.00	29.846 
22:25	58.3	58.3	58.3	64	46.2	0	0	---	0.00	29.846 
22:30	58.0	58.0	58.0	65	46.3	0	0	---	0.00	29.848 
22:35	57.6	57.6	57.6	65	45.9	0	0	---	0.00	29.848 
22:40	57.3	57.3	57.3	66	46.0	0	0	---	0.00	29.848 
22:45	57.2	57.2	57.2	66	45.9	0	0	---	0.00	29.849 
22:50	56.9	56.9	56.9	67	46.1	0	0	---	0.00	29.849 
22:55	56.6	56.6	56.6	68	46.2	0	0	---	0.00	29.849 
23:00	56.5	56.5	56.5	69	46.5	0	0	---	0.00	29.849 
23:05	56.2	56.2	56.2	69	46.2	0	0	---	0.00	29.849 
23:10	56.0	56.0	56.0	70	46.4	0	0	---	0.00	29.849 
23:15	55.7	55.7	55.7	71	46.4	0	0	---	0.00	29.845 
23:20	55.6	55.6	55.6	72	46.7	0	0	---	0.00	29.845 
23:25	55.4	55.4	55.4	72	46.5	0	0	---	0.00	29.845 
23:30	55.3	55.3	55.3	73	46.8	0	0	---	0.00	29.845 
23:35	55.1	55.1	55.1	73	46.6	0	0	---	0.00	29.845 
23:40	55.0	55.0	55.0	74	46.9	0	0	---	0.00	29.845 
23:45	54.8	54.8	54.8	74	46.7	0	0	---	0.00	29.846 
23:50	54.7	54.7	54.7	74	46.6	0	0	---	0.00	29.846 
23:55	54.7	54.7	54.7	75	46.9	0	0	---	0.00	29.846 

CoCoRaHS
IN-AL-39
A2 Web Hosting
Creative Commons License
GoDaddy
search engine by freefind advanced

loaded 2018-11-12 19:28:01 • last modified 2010-11-18 10:43:29
Privacy PolicyDisclaimer
• wx.awcolley.com is powered by PmWiki v.2002016 •
• all content (unless otherwise noted) © 2018 A W Colley